sensor_id;sensor_type;location;lat;lon;timestamp;P1;durP1;ratioP1;P2;durP2;ratioP2
23432;SDS011;41331;45.412;10.992;2024-01-27T00:02:20;367.83;;;150.00;;
23432;SDS011;41331;45.412;10.992;2024-01-27T00:04:47;264.25;;;147.98;;
23432;SDS011;41331;45.412;10.992;2024-01-27T00:07:16;363.38;;;150.15;;
23432;SDS011;41331;45.412;10.992;2024-01-27T00:09:43;342.13;;;151.25;;
23432;SDS011;41331;45.412;10.992;2024-01-27T00:12:11;223.95;;;143.77;;
23432;SDS011;41331;45.412;10.992;2024-01-27T00:14:39;226.30;;;144.50;;
23432;SDS011;41331;45.412;10.992;2024-01-27T00:17:07;227.48;;;135.00;;
23432;SDS011;41331;45.412;10.992;2024-01-27T00:19:35;233.65;;;141.68;;
23432;SDS011;41331;45.412;10.992;2024-01-27T00:24:35;223.95;;;127.05;;
23432;SDS011;41331;45.412;10.992;2024-01-27T00:27:03;319.17;;;140.65;;
23432;SDS011;41331;45.412;10.992;2024-01-27T00:29:31;318.80;;;144.07;;
23432;SDS011;41331;45.412;10.992;2024-01-27T00:31:59;325.63;;;140.93;;
23432;SDS011;41331;45.412;10.992;2024-01-27T00:34:26;290.90;;;140.75;;
23432;SDS011;41331;45.412;10.992;2024-01-27T00:36:54;306.40;;;143.43;;
23432;SDS011;41331;45.412;10.992;2024-01-27T00:39:22;313.88;;;142.02;;
23432;SDS011;41331;45.412;10.992;2024-01-27T00:41:51;345.65;;;142.10;;
23432;SDS011;41331;45.412;10.992;2024-01-27T00:44:20;344.73;;;139.48;;
23432;SDS011;41331;45.412;10.992;2024-01-27T00:46:47;369.10;;;142.80;;
23432;SDS011;41331;45.412;10.992;2024-01-27T00:49:15;340.33;;;141.68;;
23432;SDS011;41331;45.412;10.992;2024-01-27T00:51:43;375.02;;;143.50;;
23432;SDS011;41331;45.412;10.992;2024-01-27T00:54:10;302.00;;;144.85;;
23432;SDS011;41331;45.412;10.992;2024-01-27T00:56:38;344.52;;;138.50;;
23432;SDS011;41331;45.412;10.992;2024-01-27T00:59:06;202.50;;;128.10;;
23432;SDS011;41331;45.412;10.992;2024-01-27T01:01:34;243.80;;;135.82;;
23432;SDS011;41331;45.412;10.992;2024-01-27T01:04:01;241.40;;;132.45;;
23432;SDS011;41331;45.412;10.992;2024-01-27T01:06:29;333.52;;;136.25;;
23432;SDS011;41331;45.412;10.992;2024-01-27T01:08:57;319.77;;;132.00;;
23432;SDS011;41331;45.412;10.992;2024-01-27T01:11:25;300.88;;;129.85;;
23432;SDS011;41331;45.412;10.992;2024-01-27T01:13:53;307.30;;;133.95;;
23432;SDS011;41331;45.412;10.992;2024-01-27T01:16:20;324.13;;;133.10;;
23432;SDS011;41331;45.412;10.992;2024-01-27T01:18:48;296.55;;;128.77;;
23432;SDS011;41331;45.412;10.992;2024-01-27T01:21:16;336.10;;;131.02;;
23432;SDS011;41331;45.412;10.992;2024-01-27T01:23:44;357.40;;;134.73;;
23432;SDS011;41331;45.412;10.992;2024-01-27T01:26:12;224.68;;;130.10;;
23432;SDS011;41331;45.412;10.992;2024-01-27T01:28:39;354.90;;;131.30;;
23432;SDS011;41331;45.412;10.992;2024-01-27T01:31:07;301.40;;;128.13;;
23432;SDS011;41331;45.412;10.992;2024-01-27T01:33:35;318.60;;;126.30;;
23432;SDS011;41331;45.412;10.992;2024-01-27T01:36:03;222.48;;;122.43;;
23432;SDS011;41331;45.412;10.992;2024-01-27T01:38:31;315.63;;;127.38;;
23432;SDS011;41331;45.412;10.992;2024-01-27T01:40:59;261.63;;;130.18;;
23432;SDS011;41331;45.412;10.992;2024-01-27T01:43:27;264.42;;;126.80;;
23432;SDS011;41331;45.412;10.992;2024-01-27T01:45:54;314.30;;;130.38;;
23432;SDS011;41331;45.412;10.992;2024-01-27T01:48:22;320.80;;;133.13;;
23432;SDS011;41331;45.412;10.992;2024-01-27T01:50:50;333.88;;;137.02;;
23432;SDS011;41331;45.412;10.992;2024-01-27T01:53:19;360.65;;;133.70;;
23432;SDS011;41331;45.412;10.992;2024-01-27T01:55:46;310.13;;;130.38;;
23432;SDS011;41331;45.412;10.992;2024-01-27T01:58:14;327.50;;;132.27;;
23432;SDS011;41331;45.412;10.992;2024-01-27T02:00:42;337.38;;;133.80;;
23432;SDS011;41331;45.412;10.992;2024-01-27T02:03:12;350.13;;;132.75;;
23432;SDS011;41331;45.412;10.992;2024-01-27T02:05:40;315.48;;;133.02;;
23432;SDS011;41331;45.412;10.992;2024-01-27T02:08:08;369.92;;;133.50;;
23432;SDS011;41331;45.412;10.992;2024-01-27T02:10:36;336.63;;;130.23;;
23432;SDS011;41331;45.412;10.992;2024-01-27T02:13:04;373.83;;;132.50;;
23432;SDS011;41331;45.412;10.992;2024-01-27T02:15:48;358.88;;;130.85;;
23432;SDS011;41331;45.412;10.992;2024-01-27T02:18:18;360.38;;;132.15;;
23432;SDS011;41331;45.412;10.992;2024-01-27T02:20:47;372.33;;;133.52;;
23432;SDS011;41331;45.412;10.992;2024-01-27T02:23:15;308.75;;;139.00;;
23432;SDS011;41331;45.412;10.992;2024-01-27T02:25:42;362.85;;;137.57;;
23432;SDS011;41331;45.412;10.992;2024-01-27T02:28:10;366.98;;;137.57;;
23432;SDS011;41331;45.412;10.992;2024-01-27T02:30:40;362.52;;;130.30;;
23432;SDS011;41331;45.412;10.992;2024-01-27T02:33:07;285.80;;;131.70;;
23432;SDS011;41331;45.412;10.992;2024-01-27T02:35:35;301.60;;;131.55;;
23432;SDS011;41331;45.412;10.992;2024-01-27T02:38:03;380.23;;;129.90;;
23432;SDS011;41331;45.412;10.992;2024-01-27T02:40:31;358.15;;;131.88;;
23432;SDS011;41331;45.412;10.992;2024-01-27T02:42:59;365.42;;;130.88;;
23432;SDS011;41331;45.412;10.992;2024-01-27T02:45:26;320.35;;;131.57;;
23432;SDS011;41331;45.412;10.992;2024-01-27T02:47:54;319.55;;;131.70;;
23432;SDS011;41331;45.412;10.992;2024-01-27T02:50:22;340.05;;;133.85;;
23432;SDS011;41331;45.412;10.992;2024-01-27T02:52:50;392.65;;;133.55;;
23432;SDS011;41331;45.412;10.992;2024-01-27T02:55:17;409.42;;;134.27;;
23432;SDS011;41331;45.412;10.992;2024-01-27T02:57:45;393.30;;;138.05;;
23432;SDS011;41331;45.412;10.992;2024-01-27T03:00:13;403.85;;;139.15;;
23432;SDS011;41331;45.412;10.992;2024-01-27T03:02:41;240.68;;;131.70;;
23432;SDS011;41331;45.412;10.992;2024-01-27T03:05:08;301.80;;;134.23;;
23432;SDS011;41331;45.412;10.992;2024-01-27T03:07:36;396.88;;;135.07;;
23432;SDS011;41331;45.412;10.992;2024-01-27T03:10:04;400.05;;;134.73;;
23432;SDS011;41331;45.412;10.992;2024-01-27T03:12:32;372.90;;;132.23;;
23432;SDS011;41331;45.412;10.992;2024-01-27T03:15:00;399.05;;;132.43;;
23432;SDS011;41331;45.412;10.992;2024-01-27T03:17:28;381.25;;;131.60;;
23432;SDS011;41331;45.412;10.992;2024-01-27T03:19:56;375.30;;;133.27;;
23432;SDS011;41331;45.412;10.992;2024-01-27T03:22:24;380.17;;;136.18;;
23432;SDS011;41331;45.412;10.992;2024-01-27T03:24:51;338.65;;;133.15;;
23432;SDS011;41331;45.412;10.992;2024-01-27T03:27:22;387.52;;;127.38;;
23432;SDS011;41331;45.412;10.992;2024-01-27T03:29:50;338.33;;;126.75;;
23432;SDS011;41331;45.412;10.992;2024-01-27T03:32:18;400.20;;;131.23;;
23432;SDS011;41331;45.412;10.992;2024-01-27T03:34:45;401.67;;;131.15;;
23432;SDS011;41331;45.412;10.992;2024-01-27T03:37:13;264.48;;;128.75;;
23432;SDS011;41331;45.412;10.992;2024-01-27T03:39:41;282.23;;;131.90;;
23432;SDS011;41331;45.412;10.992;2024-01-27T03:42:09;301.70;;;129.18;;
23432;SDS011;41331;45.412;10.992;2024-01-27T03:44:37;424.85;;;134.30;;
23432;SDS011;41331;45.412;10.992;2024-01-27T03:47:05;368.05;;;131.45;;
23432;SDS011;41331;45.412;10.992;2024-01-27T03:49:32;408.85;;;132.27;;
23432;SDS011;41331;45.412;10.992;2024-01-27T03:52:00;256.13;;;124.78;;
23432;SDS011;41331;45.412;10.992;2024-01-27T03:54:28;272.25;;;124.80;;
23432;SDS011;41331;45.412;10.992;2024-01-27T03:56:56;288.05;;;121.10;;
23432;SDS011;41331;45.412;10.992;2024-01-27T03:59:23;291.77;;;124.60;;
23432;SDS011;41331;45.412;10.992;2024-01-27T04:01:51;278.65;;;123.57;;
23432;SDS011;41331;45.412;10.992;2024-01-27T04:04:19;292.15;;;120.25;;
23432;SDS011;41331;45.412;10.992;2024-01-27T04:06:47;301.10;;;121.82;;
23432;SDS011;41331;45.412;10.992;2024-01-27T04:09:15;305.15;;;125.25;;
23432;SDS011;41331;45.412;10.992;2024-01-27T04:11:43;322.15;;;126.43;;
23432;SDS011;41331;45.412;10.992;2024-01-27T04:14:11;345.17;;;124.80;;
23432;SDS011;41331;45.412;10.992;2024-01-27T04:16:38;369.42;;;126.18;;
23432;SDS011;41331;45.412;10.992;2024-01-27T04:19:07;360.80;;;125.88;;
23432;SDS011;41331;45.412;10.992;2024-01-27T04:21:34;419.15;;;128.18;;
23432;SDS011;41331;45.412;10.992;2024-01-27T04:24:02;426.08;;;124.20;;
23432;SDS011;41331;45.412;10.992;2024-01-27T04:26:30;437.75;;;123.80;;
23432;SDS011;41331;45.412;10.992;2024-01-27T04:28:58;452.02;;;122.75;;
23432;SDS011;41331;45.412;10.992;2024-01-27T04:31:25;485.77;;;124.95;;
23432;SDS011;41331;45.412;10.992;2024-01-27T04:33:53;497.48;;;130.60;;
23432;SDS011;41331;45.412;10.992;2024-01-27T04:36:27;496.45;;;131.20;;
23432;SDS011;41331;45.412;10.992;2024-01-27T04:38:59;488.90;;;128.48;;
23432;SDS011;41331;45.412;10.992;2024-01-27T04:41:27;567.22;;;127.40;;
23432;SDS011;41331;45.412;10.992;2024-01-27T04:43:55;540.90;;;122.18;;
23432;SDS011;41331;45.412;10.992;2024-01-27T04:46:23;500.25;;;123.38;;
23432;SDS011;41331;45.412;10.992;2024-01-27T04:48:51;532.97;;;128.68;;
23432;SDS011;41331;45.412;10.992;2024-01-27T04:51:19;564.65;;;128.35;;
23432;SDS011;41331;45.412;10.992;2024-01-27T04:53:47;509.80;;;123.50;;
23432;SDS011;41331;45.412;10.992;2024-01-27T04:56:14;414.92;;;120.40;;
23432;SDS011;41331;45.412;10.992;2024-01-27T04:58:42;532.30;;;123.80;;
23432;SDS011;41331;45.412;10.992;2024-01-27T05:01:10;534.40;;;126.72;;
23432;SDS011;41331;45.412;10.992;2024-01-27T05:03:37;567.65;;;126.80;;
23432;SDS011;41331;45.412;10.992;2024-01-27T05:06:07;404.38;;;123.28;;
23432;SDS011;41331;45.412;10.992;2024-01-27T05:08:37;374.52;;;122.35;;
23432;SDS011;41331;45.412;10.992;2024-01-27T05:11:05;468.80;;;122.75;;
23432;SDS011;41331;45.412;10.992;2024-01-27T05:13:33;545.33;;;131.85;;
23432;SDS011;41331;45.412;10.992;2024-01-27T05:16:01;300.77;;;118.95;;
23432;SDS011;41331;45.412;10.992;2024-01-27T05:18:29;301.95;;;115.63;;
23432;SDS011;41331;45.412;10.992;2024-01-27T05:20:56;295.42;;;115.55;;
23432;SDS011;41331;45.412;10.992;2024-01-27T05:23:24;282.88;;;111.80;;
23432;SDS011;41331;45.412;10.992;2024-01-27T05:25:53;277.10;;;114.13;;
23432;SDS011;41331;45.412;10.992;2024-01-27T05:28:22;281.25;;;113.93;;
23432;SDS011;41331;45.412;10.992;2024-01-27T05:30:49;272.98;;;111.35;;
23432;SDS011;41331;45.412;10.992;2024-01-27T05:33:17;278.40;;;115.93;;
23432;SDS011;41331;45.412;10.992;2024-01-27T05:35:45;329.63;;;113.70;;
23432;SDS011;41331;45.412;10.992;2024-01-27T05:38:12;356.80;;;112.93;;
23432;SDS011;41331;45.412;10.992;2024-01-27T05:40:40;330.98;;;113.43;;
23432;SDS011;41331;45.412;10.992;2024-01-27T05:43:08;359.10;;;113.80;;
23432;SDS011;41331;45.412;10.992;2024-01-27T05:45:36;390.38;;;113.57;;
23432;SDS011;41331;45.412;10.992;2024-01-27T05:48:04;431.95;;;117.28;;
23432;SDS011;41331;45.412;10.992;2024-01-27T05:50:32;495.77;;;125.38;;
23432;SDS011;41331;45.412;10.992;2024-01-27T05:53:01;283.70;;;112.75;;
23432;SDS011;41331;45.412;10.992;2024-01-27T05:55:29;256.15;;;109.03;;
23432;SDS011;41331;45.412;10.992;2024-01-27T05:57:56;249.40;;;106.65;;
23432;SDS011;41331;45.412;10.992;2024-01-27T06:00:24;230.95;;;104.28;;
23432;SDS011;41331;45.412;10.992;2024-01-27T06:02:52;179.38;;;96.82;;
23432;SDS011;41331;45.412;10.992;2024-01-27T06:05:20;173.30;;;89.93;;
23432;SDS011;41331;45.412;10.992;2024-01-27T06:07:47;168.00;;;94.57;;
23432;SDS011;41331;45.412;10.992;2024-01-27T06:10:16;133.63;;;86.43;;
23432;SDS011;41331;45.412;10.992;2024-01-27T06:12:45;145.98;;;91.88;;
23432;SDS011;41331;45.412;10.992;2024-01-27T06:15:13;154.43;;;92.72;;
23432;SDS011;41331;45.412;10.992;2024-01-27T06:17:43;145.95;;;88.32;;
23432;SDS011;41331;45.412;10.992;2024-01-27T06:20:10;146.32;;;89.30;;
23432;SDS011;41331;45.412;10.992;2024-01-27T06:22:39;205.75;;;101.15;;
23432;SDS011;41331;45.412;10.992;2024-01-27T06:25:07;218.85;;;101.25;;
23432;SDS011;41331;45.412;10.992;2024-01-27T06:27:36;202.82;;;100.20;;
23432;SDS011;41331;45.412;10.992;2024-01-27T06:30:05;220.52;;;103.28;;
23432;SDS011;41331;45.412;10.992;2024-01-27T06:32:33;226.30;;;103.78;;
23432;SDS011;41331;45.412;10.992;2024-01-27T06:35:01;221.50;;;101.20;;
23432;SDS011;41331;45.412;10.992;2024-01-27T06:37:30;238.25;;;103.47;;
23432;SDS011;41331;45.412;10.992;2024-01-27T06:39:58;231.45;;;105.88;;
23432;SDS011;41331;45.412;10.992;2024-01-27T06:42:26;248.48;;;107.82;;
23432;SDS011;41331;45.412;10.992;2024-01-27T06:44:53;255.55;;;105.38;;
23432;SDS011;41331;45.412;10.992;2024-01-27T06:47:21;236.27;;;105.63;;
23432;SDS011;41331;45.412;10.992;2024-01-27T06:49:49;243.70;;;100.53;;
23432;SDS011;41331;45.412;10.992;2024-01-27T06:52:17;222.30;;;101.57;;
23432;SDS011;41331;45.412;10.992;2024-01-27T06:54:45;200.85;;;96.85;;
23432;SDS011;41331;45.412;10.992;2024-01-27T06:57:19;215.98;;;105.70;;
23432;SDS011;41331;45.412;10.992;2024-01-27T06:59:51;227.60;;;103.05;;
23432;SDS011;41331;45.412;10.992;2024-01-27T07:02:23;234.52;;;103.07;;
23432;SDS011;41331;45.412;10.992;2024-01-27T07:04:55;226.20;;;99.75;;
23432;SDS011;41331;45.412;10.992;2024-01-27T07:07:24;235.68;;;99.85;;
23432;SDS011;41331;45.412;10.992;2024-01-27T07:09:57;240.55;;;104.68;;
23432;SDS011;41331;45.412;10.992;2024-01-27T07:12:25;215.18;;;103.90;;
23432;SDS011;41331;45.412;10.992;2024-01-27T07:14:53;235.13;;;98.50;;
23432;SDS011;41331;45.412;10.992;2024-01-27T07:17:24;217.43;;;101.35;;
23432;SDS011;41331;45.412;10.992;2024-01-27T07:19:52;248.00;;;100.10;;
23432;SDS011;41331;45.412;10.992;2024-01-27T07:22:22;252.85;;;101.60;;
23432;SDS011;41331;45.412;10.992;2024-01-27T07:24:49;250.82;;;104.63;;
23432;SDS011;41331;45.412;10.992;2024-01-27T07:27:19;256.23;;;105.55;;
23432;SDS011;41331;45.412;10.992;2024-01-27T07:29:46;268.05;;;106.45;;
23432;SDS011;41331;45.412;10.992;2024-01-27T07:32:14;266.02;;;108.95;;
23432;SDS011;41331;45.412;10.992;2024-01-27T07:34:42;255.10;;;108.25;;
23432;SDS011;41331;45.412;10.992;2024-01-27T07:37:11;242.93;;;105.60;;
23432;SDS011;41331;45.412;10.992;2024-01-27T07:39:38;273.92;;;108.00;;
23432;SDS011;41331;45.412;10.992;2024-01-27T07:42:06;273.02;;;112.20;;
23432;SDS011;41331;45.412;10.992;2024-01-27T07:44:34;244.77;;;109.28;;
23432;SDS011;41331;45.412;10.992;2024-01-27T07:47:02;266.52;;;107.90;;
23432;SDS011;41331;45.412;10.992;2024-01-27T07:49:29;284.40;;;109.10;;
23432;SDS011;41331;45.412;10.992;2024-01-27T07:51:57;296.02;;;116.85;;
23432;SDS011;41331;45.412;10.992;2024-01-27T07:54:25;240.73;;;113.03;;
23432;SDS011;41331;45.412;10.992;2024-01-27T07:56:53;271.88;;;116.68;;
23432;SDS011;41331;45.412;10.992;2024-01-27T07:59:21;235.15;;;112.55;;
23432;SDS011;41331;45.412;10.992;2024-01-27T08:01:48;268.08;;;113.53;;
23432;SDS011;41331;45.412;10.992;2024-01-27T08:04:16;256.55;;;115.10;;
23432;SDS011;41331;45.412;10.992;2024-01-27T08:06:48;237.02;;;115.30;;
23432;SDS011;41331;45.412;10.992;2024-01-27T08:09:17;269.33;;;117.93;;
23432;SDS011;41331;45.412;10.992;2024-01-27T08:11:46;297.83;;;115.60;;
23432;SDS011;41331;45.412;10.992;2024-01-27T08:14:19;320.38;;;124.03;;
23432;SDS011;41331;45.412;10.992;2024-01-27T08:16:47;463.00;;;133.73;;
23432;SDS011;41331;45.412;10.992;2024-01-27T08:19:15;550.15;;;133.02;;
23432;SDS011;41331;45.412;10.992;2024-01-27T08:21:48;531.35;;;125.18;;
23432;SDS011;41331;45.412;10.992;2024-01-27T08:24:16;458.23;;;125.63;;
23432;SDS011;41331;45.412;10.992;2024-01-27T08:26:44;235.50;;;118.72;;
23432;SDS011;41331;45.412;10.992;2024-01-27T08:29:12;292.23;;;119.20;;
23432;SDS011;41331;45.412;10.992;2024-01-27T08:31:40;383.45;;;122.25;;
23432;SDS011;41331;45.412;10.992;2024-01-27T08:34:07;197.20;;;115.60;;
23432;SDS011;41331;45.412;10.992;2024-01-27T08:36:35;417.45;;;123.82;;
23432;SDS011;41331;45.412;10.992;2024-01-27T08:39:04;416.17;;;123.97;;
23432;SDS011;41331;45.412;10.992;2024-01-27T08:41:35;246.25;;;122.50;;
23432;SDS011;41331;45.412;10.992;2024-01-27T08:44:02;273.08;;;124.20;;
23432;SDS011;41331;45.412;10.992;2024-01-27T08:46:30;259.67;;;120.18;;
23432;SDS011;41331;45.412;10.992;2024-01-27T08:48:58;275.52;;;129.57;;
23432;SDS011;41331;45.412;10.992;2024-01-27T08:51:26;323.85;;;131.93;;
23432;SDS011;41331;45.412;10.992;2024-01-27T08:53:54;397.23;;;134.80;;
23432;SDS011;41331;45.412;10.992;2024-01-27T08:56:21;395.02;;;124.38;;
23432;SDS011;41331;45.412;10.992;2024-01-27T08:58:49;368.10;;;138.27;;
23432;SDS011;41331;45.412;10.992;2024-01-27T09:01:18;388.70;;;135.13;;
23432;SDS011;41331;45.412;10.992;2024-01-27T09:03:46;456.58;;;136.23;;
23432;SDS011;41331;45.412;10.992;2024-01-27T09:06:14;515.72;;;132.95;;
23432;SDS011;41331;45.412;10.992;2024-01-27T09:08:42;474.98;;;129.18;;
23432;SDS011;41331;45.412;10.992;2024-01-27T09:11:10;519.20;;;128.43;;
23432;SDS011;41331;45.412;10.992;2024-01-27T09:13:38;507.30;;;131.15;;
23432;SDS011;41331;45.412;10.992;2024-01-27T09:16:05;545.85;;;130.07;;
23432;SDS011;41331;45.412;10.992;2024-01-27T09:18:33;512.58;;;130.32;;
23432;SDS011;41331;45.412;10.992;2024-01-27T09:21:01;324.55;;;125.90;;
23432;SDS011;41331;45.412;10.992;2024-01-27T09:23:29;449.00;;;128.75;;
23432;SDS011;41331;45.412;10.992;2024-01-27T09:25:56;458.17;;;131.45;;
23432;SDS011;41331;45.412;10.992;2024-01-27T09:28:24;296.52;;;131.13;;
23432;SDS011;41331;45.412;10.992;2024-01-27T09:30:52;531.25;;;134.23;;
23432;SDS011;41331;45.412;10.992;2024-01-27T09:33:20;526.20;;;135.73;;
23432;SDS011;41331;45.412;10.992;2024-01-27T09:35:50;576.65;;;136.05;;
23432;SDS011;41331;45.412;10.992;2024-01-27T09:38:18;475.17;;;140.85;;
23432;SDS011;41331;45.412;10.992;2024-01-27T09:40:46;460.67;;;135.63;;
23432;SDS011;41331;45.412;10.992;2024-01-27T09:43:14;448.38;;;130.10;;
23432;SDS011;41331;45.412;10.992;2024-01-27T09:45:44;458.65;;;129.00;;
23432;SDS011;41331;45.412;10.992;2024-01-27T09:48:13;424.95;;;126.22;;
23432;SDS011;41331;45.412;10.992;2024-01-27T09:50:41;427.27;;;124.25;;
23432;SDS011;41331;45.412;10.992;2024-01-27T09:53:09;415.33;;;120.57;;
23432;SDS011;41331;45.412;10.992;2024-01-27T09:55:37;444.98;;;119.55;;
23432;SDS011;41331;45.412;10.992;2024-01-27T09:58:05;416.65;;;123.22;;
23432;SDS011;41331;45.412;10.992;2024-01-27T10:00:33;440.95;;;122.88;;
23432;SDS011;41331;45.412;10.992;2024-01-27T10:03:04;435.92;;;121.38;;
23432;SDS011;41331;45.412;10.992;2024-01-27T10:05:33;388.92;;;111.20;;
23432;SDS011;41331;45.412;10.992;2024-01-27T10:08:02;395.25;;;112.30;;
23432;SDS011;41331;45.412;10.992;2024-01-27T10:10:34;392.30;;;116.45;;
23432;SDS011;41331;45.412;10.992;2024-01-27T10:13:02;385.73;;;113.30;;
23432;SDS011;41331;45.412;10.992;2024-01-27T10:15:31;388.60;;;110.07;;
23432;SDS011;41331;45.412;10.992;2024-01-27T10:18:08;369.10;;;112.60;;
23432;SDS011;41331;45.412;10.992;2024-01-27T10:20:36;389.27;;;107.78;;
23432;SDS011;41331;45.412;10.992;2024-01-27T10:23:10;398.13;;;114.90;;
23432;SDS011;41331;45.412;10.992;2024-01-27T10:25:39;371.17;;;111.82;;
23432;SDS011;41331;45.412;10.992;2024-01-27T10:28:08;410.20;;;116.82;;
23432;SDS011;41331;45.412;10.992;2024-01-27T10:30:37;417.83;;;117.18;;
23432;SDS011;41331;45.412;10.992;2024-01-27T10:33:07;413.67;;;116.63;;
23432;SDS011;41331;45.412;10.992;2024-01-27T10:35:36;407.33;;;119.60;;
23432;SDS011;41331;45.412;10.992;2024-01-27T10:38:04;404.33;;;122.20;;
23432;SDS011;41331;45.412;10.992;2024-01-27T10:40:32;386.02;;;120.57;;
23432;SDS011;41331;45.412;10.992;2024-01-27T10:45:34;381.75;;;113.50;;
23432;SDS011;41331;45.412;10.992;2024-01-27T10:48:07;417.20;;;118.50;;
23432;SDS011;41331;45.412;10.992;2024-01-27T10:50:39;441.60;;;119.40;;
23432;SDS011;41331;45.412;10.992;2024-01-27T10:53:18;472.13;;;123.38;;
23432;SDS011;41331;45.412;10.992;2024-01-27T10:55:54;479.00;;;126.68;;
23432;SDS011;41331;45.412;10.992;2024-01-27T10:58:25;485.67;;;124.32;;
23432;SDS011;41331;45.412;10.992;2024-01-27T11:00:55;527.13;;;122.50;;
23432;SDS011;41331;45.412;10.992;2024-01-27T11:03:23;535.53;;;119.70;;
23432;SDS011;41331;45.412;10.992;2024-01-27T11:05:54;540.83;;;124.18;;
23432;SDS011;41331;45.412;10.992;2024-01-27T11:08:24;547.70;;;122.93;;
23432;SDS011;41331;45.412;10.992;2024-01-27T11:10:55;560.33;;;120.43;;
23432;SDS011;41331;45.412;10.992;2024-01-27T11:13:23;563.45;;;119.47;;
23432;SDS011;41331;45.412;10.992;2024-01-27T11:15:54;553.67;;;120.72;;
23432;SDS011;41331;45.412;10.992;2024-01-27T11:18:22;502.25;;;125.28;;
23432;SDS011;41331;45.412;10.992;2024-01-27T11:20:56;522.13;;;121.95;;
23432;SDS011;41331;45.412;10.992;2024-01-27T11:23:32;564.45;;;122.30;;
23432;SDS011;41331;45.412;10.992;2024-01-27T11:26:04;557.20;;;118.68;;
23432;SDS011;41331;45.412;10.992;2024-01-27T11:28:32;560.50;;;122.22;;
23432;SDS011;41331;45.412;10.992;2024-01-27T11:31:04;559.75;;;120.10;;
23432;SDS011;41331;45.412;10.992;2024-01-27T11:36:03;498.33;;;126.00;;
23432;SDS011;41331;45.412;10.992;2024-01-27T11:38:32;530.28;;;126.00;;
23432;SDS011;41331;45.412;10.992;2024-01-27T11:41:00;525.95;;;133.52;;
23432;SDS011;41331;45.412;10.992;2024-01-27T11:43:29;522.88;;;128.82;;
23432;SDS011;41331;45.412;10.992;2024-01-27T11:46:00;533.17;;;132.65;;
23432;SDS011;41331;45.412;10.992;2024-01-27T11:51:10;526.53;;;129.00;;
23432;SDS011;41331;45.412;10.992;2024-01-27T11:53:38;539.10;;;129.82;;
23432;SDS011;41331;45.412;10.992;2024-01-27T11:56:06;533.13;;;132.30;;
23432;SDS011;41331;45.412;10.992;2024-01-27T11:58:34;563.42;;;132.88;;
23432;SDS011;41331;45.412;10.992;2024-01-27T12:01:02;531.53;;;134.73;;
23432;SDS011;41331;45.412;10.992;2024-01-27T12:03:30;528.65;;;130.07;;
23432;SDS011;41331;45.412;10.992;2024-01-27T12:05:58;530.53;;;135.07;;
23432;SDS011;41331;45.412;10.992;2024-01-27T12:08:26;540.03;;;136.65;;
23432;SDS011;41331;45.412;10.992;2024-01-27T12:10:55;524.33;;;138.55;;
23432;SDS011;41331;45.412;10.992;2024-01-27T12:13:22;498.40;;;138.45;;
23432;SDS011;41331;45.412;10.992;2024-01-27T12:15:50;516.15;;;142.55;;
23432;SDS011;41331;45.412;10.992;2024-01-27T12:18:18;461.30;;;138.30;;
23432;SDS011;41331;45.412;10.992;2024-01-27T12:20:54;539.15;;;137.60;;
23432;SDS011;41331;45.412;10.992;2024-01-27T12:23:22;540.55;;;136.05;;
23432;SDS011;41331;45.412;10.992;2024-01-27T12:25:54;518.53;;;136.63;;
23432;SDS011;41331;45.412;10.992;2024-01-27T12:28:23;512.50;;;144.30;;
23432;SDS011;41331;45.412;10.992;2024-01-27T12:30:51;538.20;;;143.85;;
23432;SDS011;41331;45.412;10.992;2024-01-27T12:33:20;526.38;;;141.18;;
23432;SDS011;41331;45.412;10.992;2024-01-27T12:38:22;517.67;;;143.50;;
23432;SDS011;41331;45.412;10.992;2024-01-27T12:40:50;518.17;;;145.32;;
23432;SDS011;41331;45.412;10.992;2024-01-27T12:43:18;505.17;;;145.60;;
23432;SDS011;41331;45.412;10.992;2024-01-27T12:45:45;526.92;;;150.30;;
23432;SDS011;41331;45.412;10.992;2024-01-27T12:48:13;530.15;;;149.38;;
23432;SDS011;41331;45.412;10.992;2024-01-27T12:50:41;530.03;;;153.10;;
23432;SDS011;41331;45.412;10.992;2024-01-27T12:53:09;542.08;;;154.05;;
23432;SDS011;41331;45.412;10.992;2024-01-27T12:55:37;562.20;;;153.75;;
23432;SDS011;41331;45.412;10.992;2024-01-27T12:58:04;582.03;;;150.75;;
23432;SDS011;41331;45.412;10.992;2024-01-27T13:00:32;582.78;;;155.90;;
23432;SDS011;41331;45.412;10.992;2024-01-27T13:03:00;585.20;;;155.88;;
23432;SDS011;41331;45.412;10.992;2024-01-27T13:05:27;579.05;;;155.23;;
23432;SDS011;41331;45.412;10.992;2024-01-27T13:07:57;591.17;;;157.40;;
23432;SDS011;41331;45.412;10.992;2024-01-27T13:10:24;589.50;;;153.82;;
23432;SDS011;41331;45.412;10.992;2024-01-27T13:12:52;579.78;;;152.30;;
23432;SDS011;41331;45.412;10.992;2024-01-27T13:15:20;594.22;;;161.15;;
23432;SDS011;41331;45.412;10.992;2024-01-27T13:17:49;587.28;;;154.98;;
23432;SDS011;41331;45.412;10.992;2024-01-27T13:20:17;584.17;;;156.85;;
23432;SDS011;41331;45.412;10.992;2024-01-27T13:22:47;584.13;;;161.05;;
23432;SDS011;41331;45.412;10.992;2024-01-27T13:25:16;588.17;;;154.73;;
23432;SDS011;41331;45.412;10.992;2024-01-27T13:27:43;590.90;;;155.88;;
23432;SDS011;41331;45.412;10.992;2024-01-27T13:30:11;591.70;;;159.32;;
23432;SDS011;41331;45.412;10.992;2024-01-27T13:32:39;595.95;;;157.60;;
23432;SDS011;41331;45.412;10.992;2024-01-27T13:35:07;586.72;;;164.40;;
23432;SDS011;41331;45.412;10.992;2024-01-27T13:37:35;595.25;;;164.77;;
23432;SDS011;41331;45.412;10.992;2024-01-27T13:40:03;592.75;;;168.60;;
23432;SDS011;41331;45.412;10.992;2024-01-27T13:42:31;600.38;;;174.18;;
23432;SDS011;41331;45.412;10.992;2024-01-27T13:44:59;586.60;;;172.38;;
23432;SDS011;41331;45.412;10.992;2024-01-27T13:47:27;597.03;;;170.45;;
23432;SDS011;41331;45.412;10.992;2024-01-27T13:49:56;594.90;;;170.05;;
23432;SDS011;41331;45.412;10.992;2024-01-27T13:52:25;579.03;;;171.40;;
23432;SDS011;41331;45.412;10.992;2024-01-27T13:54:53;592.80;;;171.00;;
23432;SDS011;41331;45.412;10.992;2024-01-27T13:57:20;581.05;;;173.02;;
23432;SDS011;41331;45.412;10.992;2024-01-27T13:59:49;592.05;;;175.80;;
23432;SDS011;41331;45.412;10.992;2024-01-27T14:02:17;584.50;;;168.60;;
23432;SDS011;41331;45.412;10.992;2024-01-27T14:04:45;586.30;;;173.20;;
23432;SDS011;41331;45.412;10.992;2024-01-27T14:07:13;549.88;;;176.38;;